Aviation Digital Data Service (ADDS)

Output produced by METARs form (2009 UTC 18 January 2017)
found at http://aviationweather.gov/adds/metars/
 
KFNT 182006Z 1820/1918 26010KT P6SM OVC007 
     FM190300 24005KT 5SM BR BKN006 
     FM190900 23005KT 2SM BR BKN004 
     FM191500 22004KT 4SM BR BKN008